Time;durP1;ratioP1;P1;durP2;ratioP2;P2;SDS_P1;SDS_P2;PMS_P1;PMS_P2;Temp;Humidity;BMP_temperature;BMP_pressure;BME280_temperature;BME280_humidity;BME280_pressure;Samples;Min_cycle;Max_cycle;Signal;HPM_P1;HPM_P2
2023/12/29 00:01:30;;;;;;;;;;;22.20;37.80;;;;;;5073719;28;20031;-55
2023/12/29 00:03:57;;;;;;;;;;;22.30;37.80;;;;;;5073306;28;19924;-53
2023/12/29 00:06:24;;;;;;;;;;;22.20;37.80;;;;;;5073635;28;20016;-55
2023/12/29 00:08:51;;;;;;;;;;;22.30;37.80;;;;;;5073478;28;20278;-55
2023/12/29 00:11:19;;;;;;;;;;;22.20;37.70;;;;;;5073441;28;19986;-56
2023/12/29 00:13:46;;;;;;;;;;;22.20;37.70;;;;;;5073692;28;20319;-54
2023/12/29 00:16:14;;;;;;;;;;;22.30;37.80;;;;;;5073393;28;19946;-54
2023/12/29 00:18:41;;;;;;;;;;;22.20;37.80;;;;;;5073351;28;19924;-53
2023/12/29 00:21:08;;;;;;;;;;;22.20;37.80;;;;;;5073456;28;19924;-52
2023/12/29 00:23:35;;;;;;;;;;;22.20;37.80;;;;;;5073330;28;20400;-55
2023/12/29 00:26:02;;;;;;;;;;;22.20;37.80;;;;;;5073704;28;19924;-56
2023/12/29 00:28:29;;;;;;;;;;;22.20;37.80;;;;;;5073255;28;20023;-56
2023/12/29 00:30:56;;;;;;;;;;;22.20;37.80;;;;;;5073276;28;20360;-56
2023/12/29 00:33:29;;;;;;;;;;;22.20;37.80;;;;;;5073480;28;19924;-52
2023/12/29 00:35:56;;;;;;;;;;;22.20;37.80;;;;;;5073632;28;19970;-55
2023/12/29 00:38:24;;;;;;;;;;;22.20;37.80;;;;;;5073299;28;19975;-52
2023/12/29 00:40:51;;;;;;;;;;;22.20;37.80;;;;;;5073536;28;19967;-56
2023/12/29 00:43:18;;;;;;;;;;;22.10;37.80;;;;;;5073279;28;19928;-54
2023/12/29 00:45:45;;;;;;;;;;;22.20;37.80;;;;;;5073031;28;19950;-56
2023/12/29 00:48:12;;;;;;;;;;;22.10;37.70;;;;;;5073173;28;19924;-55
2023/12/29 00:50:39;;;;;;;;;;;22.10;37.80;;;;;;5072802;28;20005;-54
2023/12/29 00:53:06;;;;;;;;;;;22.10;37.80;;;;;;5073160;28;19924;-55
2023/12/29 00:55:33;;;;;;;;;;;22.10;37.80;;;;;;5073027;28;19986;-53
2023/12/29 00:57:59;;;;;;;;;;;22.10;37.80;;;;;;5072934;28;20006;-55
2023/12/29 01:00:27;;;;;;;;;;;22.10;37.80;;;;;;5073053;28;20435;-55
2023/12/29 01:02:54;;;;;;;;;;;22.10;37.80;;;;;;5072557;28;20027;-53
2023/12/29 01:05:21;;;;;;;;;;;22.10;37.80;;;;;;5072903;28;19967;-55
2023/12/29 01:07:48;;;;;;;;;;;22.10;37.80;;;;;;5072761;28;19924;-53
2023/12/29 01:10:15;;;;;;;;;;;22.10;37.80;;;;;;5073183;28;20331;-55
2023/12/29 01:12:42;;;;;;;;;;;22.10;37.80;;;;;;5072829;28;19931;-54
2023/12/29 01:15:09;;;;;;;;;;;22.10;37.70;;;;;;5072755;28;20373;-54
2023/12/29 01:17:36;;;;;;;;;;;22.10;37.80;;;;;;5072660;28;19924;-55
2023/12/29 01:20:04;;;;;;;;;;;22.10;37.80;;;;;;5073043;28;20277;-52
2023/12/29 01:22:31;;;;;;;;;;;22.10;37.80;;;;;;5072919;28;19964;-55
2023/12/29 01:24:59;;;;;;;;;;;22.10;37.80;;;;;;5072652;28;19924;-55
2023/12/29 01:27:26;;;;;;;;;;;22.10;37.80;;;;;;5072972;28;19946;-57
2023/12/29 01:29:53;;;;;;;;;;;22.10;37.80;;;;;;5055356;28;20321;-52
2023/12/29 01:32:20;;;;;;;;;;;22.10;37.80;;;;;;5072800;28;19928;-55
2023/12/29 01:34:47;;;;;;;;;;;22.10;37.80;;;;;;5073005;28;19932;-55
2023/12/29 01:37:14;;;;;;;;;;;22.10;37.80;;;;;;5072778;28;20027;-56
2023/12/29 01:39:41;;;;;;;;;;;22.10;37.80;;;;;;5072543;28;19924;-57
2023/12/29 01:42:08;;;;;;;;;;;22.10;37.80;;;;;;5076787;28;19963;-57
2023/12/29 01:44:35;;;;;;;;;;;22.10;37.80;;;;;;5076081;28;20011;-57
2023/12/29 01:47:05;;;;;;;;;;;22.10;37.80;;;;;;5076555;28;19931;-56
2023/12/29 01:49:33;;;;;;;;;;;22.00;37.80;;;;;;5076116;28;19925;-54
2023/12/29 01:52:00;;;;;;;;;;;22.10;37.80;;;;;;5076359;28;20347;-56
2023/12/29 01:54:30;;;;;;;;;;;22.00;37.70;;;;;;5076305;28;19924;-55
2023/12/29 01:56:59;;;;;;;;;;;22.10;37.80;;;;;;5076474;28;19928;-55
2023/12/29 01:59:27;;;;;;;;;;;22.10;37.80;;;;;;5076239;28;20036;-55
2023/12/29 02:01:57;;;;;;;;;;;22.10;37.80;;;;;;5076603;28;19974;-55
2023/12/29 02:04:25;;;;;;;;;;;22.00;37.80;;;;;;5075966;28;20007;-56
2023/12/29 02:06:53;;;;;;;;;;;22.00;37.80;;;;;;5075868;28;19924;-54
2023/12/29 02:09:20;;;;;;;;;;;22.00;37.80;;;;;;5076058;28;19925;-56
2023/12/29 02:11:47;;;;;;;;;;;22.00;37.80;;;;;;5075991;28;20324;-55
2023/12/29 02:14:15;;;;;;;;;;;22.00;37.80;;;;;;5058173;28;19925;-54
2023/12/29 02:16:54;;;;;;;;;;;22.10;37.80;;;;;;5075835;28;19924;-55
2023/12/29 02:19:32;;;;;;;;;;;22.00;37.90;;;;;;5075813;28;20453;-55
2023/12/29 02:21:59;;;;;;;;;;;22.00;37.70;;;;;;5075808;28;19924;-56
2023/12/29 02:24:26;;;;;;;;;;;22.00;37.80;;;;;;5075508;28;20408;-53
2023/12/29 02:26:57;;;;;;;;;;;22.10;37.80;;;;;;5075702;28;20433;-55
2023/12/29 02:29:25;;;;;;;;;;;22.00;37.80;;;;;;5074938;28;20370;-55
2023/12/29 02:31:54;;;;;;;;;;;22.00;37.80;;;;;;5075351;28;20015;-55
2023/12/29 02:34:22;;;;;;;;;;;22.00;37.80;;;;;;5075565;28;19928;-53
2023/12/29 02:36:50;;;;;;;;;;;22.00;37.80;;;;;;5075504;28;19924;-55
2023/12/29 02:39:17;;;;;;;;;;;22.00;37.80;;;;;;5075603;28;19947;-54
2023/12/29 02:41:44;;;;;;;;;;;22.00;37.80;;;;;;5075201;28;19925;-54
2023/12/29 02:44:11;;;;;;;;;;;22.00;37.70;;;;;;5075223;28;20295;-52
2023/12/29 02:46:38;;;;;;;;;;;22.00;37.80;;;;;;5074916;28;20359;-56
2023/12/29 02:49:05;;;;;;;;;;;22.00;37.80;;;;;;5075287;28;19924;-56
2023/12/29 02:51:32;;;;;;;;;;;22.00;37.80;;;;;;5074549;28;19924;-52
2023/12/29 02:53:59;;;;;;;;;;;22.00;37.80;;;;;;5074974;28;19924;-55
2023/12/29 02:56:26;;;;;;;;;;;22.00;37.90;;;;;;5073573;28;20396;-53
2023/12/29 02:58:53;;;;;;;;;;;22.00;37.80;;;;;;5074619;28;19982;-55
2023/12/29 03:01:20;;;;;;;;;;;21.90;37.80;;;;;;5075033;28;19979;-55
2023/12/29 03:03:47;;;;;;;;;;;22.00;37.80;;;;;;5074680;28;20292;-53
2023/12/29 03:06:14;;;;;;;;;;;22.00;37.80;;;;;;5075030;28;19928;-55
2023/12/29 03:08:41;;;;;;;;;;;21.90;37.80;;;;;;5075050;28;19979;-52
2023/12/29 03:11:08;;;;;;;;;;;22.00;37.90;;;;;;5074729;28;19931;-55
2023/12/29 03:13:35;;;;;;;;;;;22.00;37.80;;;;;;5074834;28;20020;-54
2023/12/29 03:16:02;;;;;;;;;;;22.00;38.40;;;;;;5074612;28;19924;-53
2023/12/29 03:18:29;;;;;;;;;;;22.00;37.80;;;;;;5074395;28;19925;-54
2023/12/29 03:20:56;;;;;;;;;;;22.00;37.80;;;;;;5074346;28;19928;-53
2023/12/29 03:23:23;;;;;;;;;;;22.00;37.80;;;;;;5074048;28;19968;-55
2023/12/29 03:25:50;;;;;;;;;;;22.00;37.80;;;;;;5074612;28;20348;-55
2023/12/29 03:28:17;;;;;;;;;;;22.00;37.80;;;;;;5074378;28;19924;-55
2023/12/29 03:30:44;;;;;;;;;;;22.00;37.80;;;;;;5071920;28;19924;-53
2023/12/29 03:33:11;;;;;;;;;;;21.90;37.70;;;;;;5073981;28;19935;-53
2023/12/29 03:35:38;;;;;;;;;;;21.90;37.70;;;;;;5074459;28;19931;-56
2023/12/29 03:38:05;;;;;;;;;;;21.90;37.80;;;;;;5074105;28;19924;-56
2023/12/29 03:40:33;;;;;;;;;;;21.90;37.80;;;;;;5074272;28;19968;-57
2023/12/29 03:42:59;;;;;;;;;;;21.90;37.80;;;;;;5074384;28;20328;-56
2023/12/29 03:45:26;;;;;;;;;;;21.90;37.80;;;;;;5074323;28;19993;-54
2023/12/29 03:47:53;;;;;;;;;;;21.90;38.00;;;;;;5074096;28;19925;-55
2023/12/29 03:50:20;;;;;;;;;;;21.90;37.80;;;;;;5072090;28;19924;-56
2023/12/29 03:52:47;;;;;;;;;;;21.90;37.80;;;;;;5073758;28;19974;-55
2023/12/29 03:55:15;;;;;;;;;;;21.90;37.80;;;;;;5073644;28;20023;-52
2023/12/29 03:57:43;;;;;;;;;;;21.90;37.80;;;;;;5073961;28;19924;-54
2023/12/29 04:00:13;;;;;;;;;;;21.90;37.80;;;;;;5072890;28;19932;-53
2023/12/29 04:02:40;;;;;;;;;;;21.90;37.70;;;;;;5073421;28;19925;-54
2023/12/29 04:05:08;;;;;;;;;;;21.90;37.70;;;;;;5056248;28;19924;-55
2023/12/29 04:07:36;;;;;;;;;;;21.90;37.70;;;;;;5056615;28;19952;-55
2023/12/29 04:10:04;;;;;;;;;;;21.90;37.80;;;;;;5073422;28;19931;-55
2023/12/29 04:12:31;;;;;;;;;;;21.90;37.80;;;;;;5073310;28;20390;-54
2023/12/29 04:14:58;;;;;;;;;;;21.90;37.80;;;;;;5073474;28;19978;-55
2023/12/29 04:17:24;;;;;;;;;;;21.90;37.80;;;;;;5072970;28;19924;-55
2023/12/29 04:19:52;;;;;;;;;;;21.90;37.80;;;;;;5073868;28;19928;-55
2023/12/29 04:22:19;;;;;;;;;;;21.90;37.80;;;;;;5073642;28;20366;-55
2023/12/29 04:24:46;;;;;;;;;;;21.90;37.80;;;;;;5073147;28;20011;-55
2023/12/29 04:27:14;;;;;;;;;;;21.90;37.80;;;;;;5073117;28;20020;-55
2023/12/29 04:29:41;;;;;;;;;;;21.90;37.70;;;;;;5073402;28;20179;-54
2023/12/29 04:32:08;;;;;;;;;;;21.90;37.70;;;;;;5073193;28;20018;-54
2023/12/29 04:34:34;;;;;;;;;;;21.90;37.80;;;;;;5073552;28;20015;-55
2023/12/29 04:37:02;;;;;;;;;;;21.90;37.80;;;;;;5073713;28;20289;-49
2023/12/29 04:39:29;;;;;;;;;;;21.90;37.70;;;;;;5073763;28;20049;-52
2023/12/29 04:41:56;;;;;;;;;;;21.90;37.60;;;;;;5073303;28;20305;-55
2023/12/29 04:44:23;;;;;;;;;;;21.90;37.50;;;;;;5072840;28;20018;-55
2023/12/29 04:46:49;;;;;;;;;;;21.90;37.40;;;;;;5073443;28;19924;-55
2023/12/29 04:49:16;;;;;;;;;;;21.90;37.30;;;;;;5073483;28;19924;-54
2023/12/29 04:51:43;;;;;;;;;;;21.90;37.20;;;;;;5072844;28;20408;-54
2023/12/29 04:54:11;;;;;;;;;;;21.90;37.10;;;;;;5072857;28;19925;-54
2023/12/29 04:56:37;;;;;;;;;;;22.00;37.00;;;;;;5072972;28;20381;-55
2023/12/29 04:59:04;;;;;;;;;;;22.00;37.00;;;;;;5070289;28;19934;-55
2023/12/29 05:01:31;;;;;;;;;;;21.90;37.00;;;;;;5072687;28;20293;-55
2023/12/29 05:03:58;;;;;;;;;;;21.90;36.90;;;;;;5072963;28;19924;-54
2023/12/29 05:06:25;;;;;;;;;;;22.00;37.50;;;;;;5055517;28;19986;-52
2023/12/29 05:08:52;;;;;;;;;;;21.90;36.80;;;;;;5072701;28;20023;-54
2023/12/29 05:11:19;;;;;;;;;;;21.90;36.70;;;;;;5073131;28;19924;-55
2023/12/29 05:13:46;;;;;;;;;;;22.00;36.70;;;;;;5072719;28;20404;-56
2023/12/29 05:16:13;;;;;;;;;;;22.00;36.70;;;;;;5075664;28;19928;-53
2023/12/29 05:18:40;;;;;;;;;;;22.00;36.70;;;;;;5076945;28;19931;-54
2023/12/29 05:21:13;;;;;;;;;;;22.00;36.60;;;;;;5057966;28;19983;-55
2023/12/29 05:23:40;;;;;;;;;;;22.00;36.50;;;;;;5067745;28;19924;-55
2023/12/29 05:26:07;;;;;;;;;;;22.00;36.50;;;;;;5056859;28;19925;-55
2023/12/29 05:28:34;;;;;;;;;;;22.00;36.50;;;;;;5073594;28;19924;-55
2023/12/29 05:31:03;;;;;;;;;;;22.00;36.40;;;;;;5076867;28;19932;-53
2023/12/29 05:33:31;;;;;;;;;;;22.00;36.40;;;;;;5076548;28;19924;-52
2023/12/29 05:35:58;;;;;;;;;;;22.00;36.40;;;;;;5076753;28;19925;-57
2023/12/29 05:38:25;;;;;;;;;;;22.10;36.40;;;;;;5076129;28;20011;-56
2023/12/29 05:40:52;;;;;;;;;;;22.10;36.30;;;;;;5076390;28;20388;-56
2023/12/29 05:43:19;;;;;;;;;;;22.10;36.30;;;;;;5076274;28;20373;-52
2023/12/29 05:45:46;;;;;;;;;;;22.10;36.30;;;;;;5068744;28;20396;-55
2023/12/29 05:48:13;;;;;;;;;;;22.10;36.30;;;;;;5076515;28;19924;-55
2023/12/29 05:50:41;;;;;;;;;;;22.10;36.30;;;;;;5075278;28;20045;-54
2023/12/29 05:53:08;;;;;;;;;;;22.10;36.30;;;;;;5076103;28;19975;-55
2023/12/29 05:55:35;;;;;;;;;;;22.10;36.20;;;;;;5041273;28;20264;-55
2023/12/29 05:58:01;;;;;;;;;;;22.10;36.20;;;;;;5055785;28;20382;-59
2023/12/29 06:00:29;;;;;;;;;;;22.10;36.20;;;;;;5067588;28;20409;-59
2023/12/29 06:02:56;;;;;;;;;;;22.10;36.20;;;;;;5071091;28;19932;-64
2023/12/29 06:05:23;;;;;;;;;;;22.10;36.20;;;;;;5073662;28;19932;-58
2023/12/29 06:07:50;;;;;;;;;;;22.10;36.20;;;;;;5068390;28;19924;-59
2023/12/29 06:10:16;;;;;;;;;;;22.10;36.20;;;;;;5055850;28;19932;-57
2023/12/29 06:12:44;;;;;;;;;;;22.10;36.10;;;;;;5060641;28;19975;-60
2023/12/29 06:15:12;;;;;;;;;;;22.10;36.10;;;;;;5069733;28;19925;-55
2023/12/29 06:17:40;;;;;;;;;;;22.10;36.10;;;;;;5071806;28;19924;-56
2023/12/29 06:20:09;;;;;;;;;;;22.10;36.00;;;;;;5074410;28;19924;-60
2023/12/29 06:22:44;;;;;;;;;;;22.10;36.00;;;;;;5071232;28;19989;-59
2023/12/29 06:25:11;;;;;;;;;;;22.10;36.00;;;;;;5070087;28;19936;-60
2023/12/29 06:27:40;;;;;;;;;;;22.10;36.00;;;;;;5070277;28;20016;-58
2023/12/29 06:30:07;;;;;;;;;;;22.20;36.10;;;;;;5072424;28;19924;-57
2023/12/29 06:32:34;;;;;;;;;;;22.20;36.20;;;;;;5072845;28;19938;-58
2023/12/29 06:35:01;;;;;;;;;;;22.20;36.20;;;;;;5071436;28;20285;-61
2023/12/29 06:37:28;;;;;;;;;;;22.20;36.30;;;;;;5057128;28;19924;-62
2023/12/29 06:39:55;;;;;;;;;;;22.20;36.70;;;;;;5074933;28;19963;-63
2023/12/29 06:42:22;;;;;;;;;;;22.20;37.20;;;;;;5074711;28;19925;-61
2023/12/29 06:44:49;;;;;;;;;;;22.20;37.80;;;;;;5073007;28;20435;-57
2023/12/29 06:47:16;;;;;;;;;;;22.30;37.80;;;;;;5072806;28;20266;-57
2023/12/29 06:49:43;;;;;;;;;;;22.30;37.90;;;;;;5071885;28;20357;-53
2023/12/29 06:52:10;;;;;;;;;;;22.40;38.10;;;;;;5071925;28;19924;-51
2023/12/29 06:54:37;;;;;;;;;;;22.40;38.50;;;;;;5071757;28;19924;-51
2023/12/29 06:57:06;;;;;;;;;;;22.40;38.40;;;;;;5073856;28;19977;-57
2023/12/29 06:59:33;;;;;;;;;;;22.50;38.40;;;;;;5074109;28;19968;-48
2023/12/29 07:02:00;;;;;;;;;;;22.50;38.50;;;;;;5072809;28;19932;-52
2023/12/29 07:04:27;;;;;;;;;;;22.50;38.50;;;;;;5073369;28;19924;-53
2023/12/29 07:06:54;;;;;;;;;;;22.60;38.50;;;;;;5073211;28;20713;-53
2023/12/29 07:09:21;;;;;;;;;;;22.60;38.50;;;;;;5069051;28;19932;-55
2023/12/29 07:11:49;;;;;;;;;;;22.70;38.20;;;;;;5072386;28;19982;-48
2023/12/29 07:14:17;;;;;;;;;;;22.70;38.00;;;;;;5070864;28;19925;-55
2023/12/29 07:16:44;;;;;;;;;;;22.70;37.90;;;;;;5070271;28;20457;-53
2023/12/29 07:19:11;;;;;;;;;;;22.80;37.90;;;;;;5069563;28;20000;-54
2023/12/29 07:21:38;;;;;;;;;;;22.80;37.90;;;;;;5068877;28;19932;-49
2023/12/29 07:24:05;;;;;;;;;;;22.80;37.80;;;;;;5070790;28;19931;-53
2023/12/29 07:26:33;;;;;;;;;;;22.90;37.70;;;;;;5067314;28;19929;-53
2023/12/29 07:29:02;;;;;;;;;;;22.90;37.50;;;;;;5055917;28;19925;-52
2023/12/29 07:31:29;;;;;;;;;;;23.00;37.50;;;;;;5068842;28;19933;-51
2023/12/29 07:33:56;;;;;;;;;;;23.00;37.50;;;;;;5068337;28;19939;-52
2023/12/29 07:36:24;;;;;;;;;;;23.00;37.50;;;;;;5071163;28;20032;-55
2023/12/29 07:38:50;;;;;;;;;;;23.10;37.50;;;;;;5071279;28;20006;-56
2023/12/29 07:41:18;;;;;;;;;;;23.10;37.50;;;;;;5069468;28;19964;-56
2023/12/29 07:43:45;;;;;;;;;;;23.10;37.50;;;;;;5065818;28;19925;-56
2023/12/29 07:46:12;;;;;;;;;;;23.10;37.40;;;;;;5069505;28;19925;-58
2023/12/29 07:48:39;;;;;;;;;;;23.10;37.30;;;;;;5067982;28;20040;-59
2023/12/29 07:51:06;;;;;;;;;;;23.20;37.40;;;;;;5069838;28;19928;-54
2023/12/29 07:53:33;;;;;;;;;;;23.30;37.40;;;;;;5070842;28;20282;-57
2023/12/29 07:56:00;;;;;;;;;;;23.30;37.30;;;;;;5070917;28;20328;-54
2023/12/29 07:58:28;;;;;;;;;;;23.40;37.30;;;;;;5067067;28;20337;-57
2023/12/29 08:00:55;;;;;;;;;;;23.40;37.40;;;;;;5067163;28;20013;-56
2023/12/29 08:03:22;;;;;;;;;;;23.40;37.40;;;;;;5052774;28;19982;-55
2023/12/29 08:05:49;;;;;;;;;;;23.40;37.20;;;;;;5070873;28;19925;-58
2023/12/29 08:08:16;;;;;;;;;;;23.50;37.10;;;;;;5068907;28;19931;-58
2023/12/29 08:10:43;;;;;;;;;;;23.50;37.10;;;;;;5068618;28;20015;-58
2023/12/29 08:13:10;;;;;;;;;;;23.50;37.10;;;;;;5070248;28;19924;-57
2023/12/29 08:15:37;;;;;;;;;;;23.50;37.00;;;;;;5066289;28;19931;-57
2023/12/29 08:18:04;;;;;;;;;;;23.60;37.00;;;;;;5069187;28;19929;-56
2023/12/29 08:20:31;;;;;;;;;;;23.60;37.00;;;;;;5063123;28;19924;-60
2023/12/29 08:22:59;;;;;;;;;;;23.50;36.90;;;;;;5069997;28;19939;-57
2023/12/29 08:25:25;;;;;;;;;;;23.60;36.90;;;;;;5068750;28;19939;-54
2023/12/29 08:27:52;;;;;;;;;;;23.60;36.80;;;;;;5066521;28;19924;-53
2023/12/29 08:30:19;;;;;;;;;;;23.60;36.80;;;;;;5066022;28;20046;-56
2023/12/29 08:32:46;;;;;;;;;;;23.60;36.80;;;;;;5065797;28;19931;-56
2023/12/29 08:35:13;;;;;;;;;;;23.70;36.80;;;;;;5065437;28;19932;-55
2023/12/29 08:37:40;;;;;;;;;;;23.70;36.80;;;;;;5071122;28;19978;-50
2023/12/29 08:40:07;;;;;;;;;;;23.80;36.70;;;;;;5066855;28;19972;-54
2023/12/29 08:42:34;;;;;;;;;;;23.80;36.60;;;;;;5062610;28;19948;-50
2023/12/29 08:45:03;;;;;;;;;;;23.80;36.50;;;;;;5065185;28;19932;-54
2023/12/29 08:47:33;;;;;;;;;;;23.90;36.50;;;;;;5062155;28;19932;-57
2023/12/29 08:50:01;;;;;;;;;;;23.90;36.50;;;;;;5064113;28;19924;-57
2023/12/29 08:52:28;;;;;;;;;;;23.90;36.40;;;;;;5065703;28;19924;-50
2023/12/29 08:54:55;;;;;;;;;;;23.90;36.40;;;;;;5067984;28;19972;-56
2023/12/29 08:57:22;;;;;;;;;;;24.00;36.50;;;;;;5070058;28;19935;-55
2023/12/29 08:59:49;;;;;;;;;;;24.00;36.60;;;;;;5070697;28;19986;-53
2023/12/29 09:02:16;;;;;;;;;;;24.00;36.70;;;;;;5066160;28;20381;-55
2023/12/29 09:04:43;;;;;;;;;;;24.00;36.90;;;;;;5070980;28;19925;-55
2023/12/29 09:07:10;;;;;;;;;;;24.00;36.80;;;;;;5070578;28;20292;-57
2023/12/29 09:09:37;;;;;;;;;;;24.10;36.70;;;;;;5072713;28;19997;-58
2023/12/29 09:12:04;;;;;;;;;;;24.10;36.50;;;;;;5069189;28;19929;-57
2023/12/29 09:14:32;;;;;;;;;;;24.10;36.20;;;;;;5068664;28;19956;-56
2023/12/29 09:16:59;;;;;;;;;;;24.10;36.10;;;;;;5072490;28;19994;-55
2023/12/29 09:19:26;;;;;;;;;;;24.10;36.10;;;;;;5070623;28;19925;-58
2023/12/29 09:22:05;;;;;;;;;;;24.10;36.10;;;;;;5066680;28;19928;-57
2023/12/29 09:24:32;;;;;;;;;;;24.10;36.10;;;;;;5065329;28;20197;-57
2023/12/29 09:26:59;;;;;;;;;;;24.10;36.00;;;;;;5070235;28;19928;-57
2023/12/29 09:29:26;;;;;;;;;;;24.10;36.00;;;;;;5070509;28;19924;-58
2023/12/29 09:31:53;;;;;;;;;;;24.20;36.10;;;;;;5068047;28;19978;-49
2023/12/29 09:34:21;;;;;;;;;;;24.10;35.90;;;;;;5070952;28;19955;-54
2023/12/29 09:36:48;;;;;;;;;;;24.20;36.00;;;;;;5051506;28;20324;-56
2023/12/29 09:39:15;;;;;;;;;;;24.20;36.10;;;;;;5066424;28;19941;-56
2023/12/29 09:41:45;;;;;;;;;;;24.20;36.30;;;;;;5069683;28;19946;-58
2023/12/29 09:44:14;;;;;;;;;;;24.30;36.40;;;;;;5066409;28;20286;-58
2023/12/29 09:46:41;;;;;;;;;;;24.30;36.30;;;;;;5059844;28;19925;-58
2023/12/29 09:49:08;;;;;;;;;;;24.30;36.40;;;;;;5068267;28;20350;-55
2023/12/29 09:51:37;;;;;;;;;;;24.30;36.40;;;;;;5064392;28;19975;-51
2023/12/29 09:54:04;;;;;;;;;;;24.30;36.60;;;;;;5068907;28;19924;-56
2023/12/29 09:56:31;;;;;;;;;;;24.30;36.70;;;;;;5068763;28;19978;-57
2023/12/29 09:58:59;;;;;;;;;;;24.30;36.80;;;;;;5070749;28;19932;-58
2023/12/29 10:01:29;;;;;;;;;;;24.40;36.80;;;;;;5053766;28;20041;-58
2023/12/29 10:04:00;;;;;;;;;;;24.40;36.70;;;;;;5072530;28;20287;-60
2023/12/29 10:06:30;;;;;;;;;;;24.40;36.50;;;;;;5075632;28;20023;-56
2023/12/29 10:08:57;;;;;;;;;;;24.40;36.40;;;;;;5071579;28;19928;-58
2023/12/29 10:11:24;;;;;;;;;;;24.50;36.50;;;;;;5069740;28;20007;-60
2023/12/29 10:13:56;;;;;;;;;;;24.40;36.40;;;;;;5071674;28;20008;-60
2023/12/29 10:16:27;;;;;;;;;;;24.50;36.40;;;;;;5068093;28;19925;-59
2023/12/29 10:19:00;;;;;;;;;;;24.50;36.30;;;;;;5066343;28;19971;-60
2023/12/29 10:21:29;;;;;;;;;;;24.50;36.20;;;;;;5069015;28;19924;-60
2023/12/29 10:24:05;;;;;;;;;;;24.50;36.10;;;;;;5060746;28;19932;-60
2023/12/29 10:26:36;;;;;;;;;;;24.50;36.10;;;;;;5059537;28;20484;-60
2023/12/29 10:29:03;;;;;;;;;;;24.50;36.00;;;;;;5071909;28;19924;-58
2023/12/29 10:31:30;;;;;;;;;;;24.50;35.90;;;;;;5073427;28;20011;-59
2023/12/29 10:34:17;;;;;;;;;;;24.50;35.80;;;;;;5073947;28;19935;-58
2023/12/29 10:36:49;;;;;;;;;;;24.50;35.70;;;;;;5060581;28;20293;-58
2023/12/29 10:39:16;;;;;;;;;;;24.60;35.50;;;;;;5072115;28;19924;-58
2023/12/29 10:41:43;;;;;;;;;;;24.60;35.40;;;;;;5072318;28;19932;-58
2023/12/29 10:44:10;;;;;;;;;;;24.60;35.30;;;;;;5067481;28;19929;-59
2023/12/29 10:46:36;;;;;;;;;;;24.60;35.20;;;;;;5069965;28;19934;-58
2023/12/29 10:49:08;;;;;;;;;;;24.50;35.00;;;;;;5072718;28;19932;-59
2023/12/29 10:51:37;;;;;;;;;;;24.60;34.90;;;;;;5066768;28;20378;-59
2023/12/29 10:54:04;;;;;;;;;;;24.50;34.70;;;;;;5068057;28;19925;-59
2023/12/29 10:56:34;;;;;;;;;;;24.50;34.70;;;;;;5074596;28;19925;-58
2023/12/29 10:59:02;;;;;;;;;;;24.60;34.70;;;;;;5064942;28;19924;-58
2023/12/29 11:01:33;;;;;;;;;;;24.60;34.60;;;;;;5070120;28;19924;-59
2023/12/29 11:04:05;;;;;;;;;;;24.50;34.60;;;;;;5071907;28;19925;-59
2023/12/29 11:06:44;;;;;;;;;;;24.60;34.50;;;;;;5072609;28;19929;-59
2023/12/29 11:09:11;;;;;;;;;;;24.60;34.50;;;;;;5073499;28;19924;-59
2023/12/29 11:11:38;;;;;;;;;;;24.50;34.40;;;;;;5074099;28;19931;-59
2023/12/29 11:14:06;;;;;;;;;;;24.60;34.50;;;;;;5073591;28;19972;-58
2023/12/29 11:16:33;;;;;;;;;;;24.50;34.40;;;;;;5073857;28;19935;-59
2023/12/29 11:19:01;;;;;;;;;;;24.60;35.00;;;;;;5072771;28;19964;-58
2023/12/29 11:21:30;;;;;;;;;;;24.50;34.30;;;;;;5073600;28;19967;-59
2023/12/29 11:23:59;;;;;;;;;;;24.50;34.30;;;;;;5072861;28;19931;-59
2023/12/29 11:26:26;;;;;;;;;;;24.50;34.30;;;;;;5073954;28;19924;-59
2023/12/29 11:28:55;;;;;;;;;;;24.60;34.30;;;;;;5068478;28;20257;-59
2023/12/29 11:31:22;;;;;;;;;;;24.60;34.40;;;;;;5073820;28;20346;-59
2023/12/29 11:33:52;;;;;;;;;;;24.60;34.30;;;;;;5072323;28;20320;-58
2023/12/29 11:36:23;;;;;;;;;;;24.60;34.40;;;;;;5074188;28;19924;-59
2023/12/29 11:39:04;;;;;;;;;;;24.60;34.40;;;;;;5073454;28;19929;-59
2023/12/29 11:41:41;;;;;;;;;;;24.60;34.40;;;;;;5073380;28;20369;-59
2023/12/29 11:44:08;;;;;;;;;;;24.60;34.30;;;;;;5072092;28;20027;-59
2023/12/29 11:46:39;;;;;;;;;;;24.60;34.40;;;;;;5072749;28;20301;-59
2023/12/29 11:49:06;;;;;;;;;;;24.70;34.40;;;;;;5054621;28;19925;-61
2023/12/29 11:51:35;;;;;;;;;;;24.60;34.80;;;;;;5072277;28;20305;-59
2023/12/29 11:54:02;;;;;;;;;;;24.70;35.20;;;;;;5073618;28;20011;-59
2023/12/29 11:56:34;;;;;;;;;;;24.70;35.30;;;;;;5073125;28;19977;-59
2023/12/29 11:59:18;;;;;;;;;;;24.70;35.40;;;;;;5072750;28;20390;-57
2023/12/29 12:01:51;;;;;;;;;;;24.70;35.50;;;;;;5069783;28;19924;-57
2023/12/29 12:04:36;;;;;;;;;;;24.70;35.60;;;;;;5073884;28;19931;-59
2023/12/29 12:07:04;;;;;;;;;;;24.70;35.80;;;;;;5073600;28;19999;-59
2023/12/29 12:09:31;;;;;;;;;;;24.70;35.80;;;;;;5073538;28;19955;-59
2023/12/29 12:11:58;;;;;;;;;;;24.80;35.90;;;;;;5073442;28;19968;-56
2023/12/29 12:14:43;;;;;;;;;;;24.80;36.00;;;;;;5073460;28;20321;-60
2023/12/29 12:17:10;;;;;;;;;;;24.80;36.00;;;;;;5072339;28;19939;-61
2023/12/29 12:19:37;;;;;;;;;;;24.80;35.90;;;;;;5072374;28;19929;-60
2023/12/29 12:22:06;;;;;;;;;;;24.80;35.80;;;;;;5073309;28;20003;-59
2023/12/29 12:24:35;;;;;;;;;;;24.80;35.70;;;;;;5071716;28;20026;-60
2023/12/29 12:27:02;;;;;;;;;;;24.80;35.90;;;;;;5071552;28;20009;-60
2023/12/29 12:29:32;;;;;;;;;;;24.80;35.90;;;;;;5072135;28;20400;-56
2023/12/29 12:31:59;;;;;;;;;;;24.80;35.90;;;;;;5072842;28;19966;-56
2023/12/29 12:34:39;;;;;;;;;;;24.80;36.00;;;;;;5072556;28;19931;-57
2023/12/29 12:37:07;;;;;;;;;;;24.90;36.10;;;;;;5055793;28;20478;-58
2023/12/29 12:39:41;;;;;;;;;;;24.90;36.10;;;;;;5072782;28;19931;-57
2023/12/29 12:42:08;;;;;;;;;;;24.90;36.10;;;;;;5072267;28;19924;-54
2023/12/29 12:44:39;;;;;;;;;;;24.90;36.00;;;;;;5072984;28;19924;-57
2023/12/29 12:47:08;;;;;;;;;;;24.90;36.10;;;;;;5073031;28;19928;-56
2023/12/29 12:49:35;;;;;;;;;;;24.90;36.00;;;;;;5072783;28;19931;-57
2023/12/29 12:52:02;;;;;;;;;;;24.90;35.90;;;;;;5073369;28;19925;-56
2023/12/29 12:54:29;;;;;;;;;;;24.90;35.90;;;;;;5072910;28;20404;-55
2023/12/29 12:56:58;;;;;;;;;;;24.90;35.90;;;;;;5072898;28;19928;-55
2023/12/29 12:59:26;;;;;;;;;;;24.90;36.60;;;;;;5073174;28;20296;-55
2023/12/29 13:01:54;;;;;;;;;;;24.90;37.10;;;;;;5072810;28;19924;-54
2023/12/29 13:04:21;;;;;;;;;;;24.90;37.60;;;;;;5072926;28;20440;-55
2023/12/29 13:06:48;;;;;;;;;;;24.90;38.30;;;;;;5072634;28;20394;-54
2023/12/29 13:09:19;;;;;;;;;;;24.90;38.80;;;;;;5072386;28;19975;-55
2023/12/29 13:11:47;;;;;;;;;;;24.90;39.40;;;;;;5055711;28;20279;-52
2023/12/29 13:14:25;;;;;;;;;;;24.90;39.60;;;;;;5072775;28;19931;-53
2023/12/29 13:16:52;;;;;;;;;;;24.90;39.60;;;;;;5072764;28;19925;-54
2023/12/29 13:19:20;;;;;;;;;;;24.90;39.40;;;;;;5054800;28;19929;-52
2023/12/29 13:21:51;;;;;;;;;;;24.80;39.00;;;;;;5072735;28;20444;-53
2023/12/29 13:24:18;;;;;;;;;;;24.80;38.60;;;;;;5073287;28;19979;-48
2023/12/29 13:26:47;;;;;;;;;;;24.80;38.30;;;;;;5072632;28;19964;-54
2023/12/29 13:29:14;;;;;;;;;;;24.80;37.90;;;;;;5072675;28;19924;-52
2023/12/29 13:31:42;;;;;;;;;;;24.80;37.60;;;;;;5073041;28;19947;-51
2023/12/29 13:34:13;;;;;;;;;;;24.80;37.40;;;;;;5072499;28;19975;-50
2023/12/29 13:37:00;;;;;;;;;;;24.70;37.20;;;;;;5074075;28;20351;-54
2023/12/29 13:39:36;;;;;;;;;;;24.70;37.10;;;;;;5076227;28;20373;-54
2023/12/29 13:42:03;;;;;;;;;;;24.70;36.90;;;;;;5076380;28;19925;-55
2023/12/29 13:44:31;;;;;;;;;;;24.70;36.70;;;;;;5076257;28;19971;-49
2023/12/29 13:46:58;;;;;;;;;;;24.70;36.50;;;;;;5076022;28;19932;-49
2023/12/29 13:49:26;;;;;;;;;;;24.70;36.40;;;;;;5076308;28;20436;-56
2023/12/29 13:51:53;;;;;;;;;;;24.70;36.20;;;;;;5076216;28;19980;-53
2023/12/29 13:54:21;;;;;;;;;;;24.70;36.10;;;;;;5075875;28;20015;-53
2023/12/29 13:56:53;;;;;;;;;;;24.70;36.00;;;;;;5076158;28;20043;-48
2023/12/29 13:59:32;;;;;;;;;;;24.60;35.90;;;;;;5075820;28;20393;-51
2023/12/29 14:02:03;;;;;;;;;;;24.60;35.80;;;;;;5076151;28;20373;-49
2023/12/29 14:04:30;;;;;;;;;;;24.60;35.80;;;;;;5076002;28;20465;-51
2023/12/29 14:07:02;;;;;;;;;;;24.60;35.70;;;;;;5075895;28;20451;-53
2023/12/29 14:09:29;;;;;;;;;;;24.60;35.70;;;;;;5075775;28;19954;-57
2023/12/29 14:11:56;;;;;;;;;;;24.60;36.20;;;;;;5076400;28;19947;-56
2023/12/29 14:14:24;;;;;;;;;;;24.50;35.50;;;;;;5075873;28;19959;-56
2023/12/29 14:16:52;;;;;;;;;;;24.50;35.50;;;;;;5075794;28;19978;-54
2023/12/29 14:19:19;;;;;;;;;;;24.50;35.50;;;;;;5075659;28;20278;-55
2023/12/29 14:21:49;;;;;;;;;;;24.50;35.40;;;;;;5075652;28;19924;-56